createdAt,value
2022-11-14T00:01:49.598Z,6.65
2022-11-14T00:07:21.415Z,6.65
2022-11-14T00:12:53.192Z,6.66
2022-11-14T00:18:24.919Z,6.66
2022-11-14T00:23:56.831Z,6.64
2022-11-14T00:29:28.546Z,6.63
2022-11-14T00:35:00.368Z,6.68
2022-11-14T00:40:31.933Z,6.67
2022-11-14T00:46:03.496Z,6.59
2022-11-14T00:51:35.325Z,6.55
2022-11-14T00:57:07.186Z,6.53
2022-11-14T01:02:38.929Z,6.53
2022-11-14T01:08:10.695Z,6.56
2022-11-14T01:13:42.188Z,6.60
2022-11-14T01:19:14.233Z,6.57
2022-11-14T01:24:45.832Z,6.51
2022-11-14T01:30:17.574Z,6.46
2022-11-14T01:35:49.400Z,6.43
2022-11-14T01:41:21.237Z,6.43
2022-11-14T01:46:53.253Z,6.42
2022-11-14T01:52:24.942Z,6.44
2022-11-14T01:57:56.871Z,6.45
2022-11-14T02:03:28.506Z,6.46
2022-11-14T02:09:00.743Z,6.43
2022-11-14T02:14:33.638Z,6.39
2022-11-14T02:20:05.834Z,6.36
2022-11-14T02:25:37.134Z,6.31
2022-11-14T02:31:09.152Z,6.26
2022-11-14T02:36:41.344Z,6.19
2022-11-14T02:42:13.013Z,6.11
2022-11-14T02:47:44.883Z,5.99
2022-11-14T02:53:16.587Z,5.87
2022-11-14T02:58:48.321Z,5.90
2022-11-14T03:04:20.076Z,5.85
2022-11-14T03:09:51.489Z,5.68
2022-11-14T03:15:22.830Z,5.56
2022-11-14T03:20:54.116Z,5.47
2022-11-14T03:26:25.431Z,5.40
2022-11-14T03:31:56.889Z,5.35
2022-11-14T03:37:28.675Z,5.30
2022-11-14T03:43:00.831Z,5.22
2022-11-14T03:48:32.657Z,5.14
2022-11-14T03:54:05.291Z,5.05
2022-11-14T04:05:06.579Z,4.94
2022-11-14T04:16:07.638Z,4.88
2022-11-14T04:21:39.432Z,4.86
2022-11-14T04:27:11.116Z,4.84
2022-11-14T04:32:42.905Z,4.75
2022-11-14T04:38:14.777Z,4.72
2022-11-14T04:43:50.816Z,4.75
2022-11-14T04:49:18.634Z,4.67
2022-11-14T04:54:52.482Z,4.56
2022-11-14T05:00:24.268Z,4.39
2022-11-14T05:05:55.860Z,4.25
2022-11-14T05:11:29.355Z,4.22
2022-11-14T05:16:59.605Z,4.27
2022-11-14T05:22:31.213Z,4.38
2022-11-14T05:28:03.126Z,4.39
2022-11-14T05:33:34.872Z,4.36
2022-11-14T05:39:08.956Z,4.35
2022-11-14T05:44:40.747Z,4.35
2022-11-14T05:50:12.392Z,4.38
2022-11-14T05:55:44.435Z,4.42
2022-11-14T06:01:16.100Z,4.48
2022-11-14T06:12:19.918Z,4.63
2022-11-14T06:17:51.481Z,4.60
2022-11-14T06:23:24.880Z,4.62
2022-11-14T06:28:54.897Z,4.66
2022-11-14T06:34:26.684Z,4.65
2022-11-14T06:39:58.447Z,4.64
2022-11-14T06:45:30.564Z,4.63
2022-11-14T06:51:02.152Z,4.68
2022-11-14T07:02:03.261Z,4.78
2022-11-14T07:07:35.115Z,4.77
2022-11-14T07:13:06.866Z,4.74
2022-11-14T07:18:38.536Z,4.74
2022-11-14T07:24:10.346Z,4.77
2022-11-14T07:29:42.249Z,4.83
2022-11-14T07:35:13.791Z,4.96
2022-11-14T07:40:45.947Z,5.05
2022-11-14T07:46:17.578Z,5.10
2022-11-14T07:51:49.525Z,5.13
2022-11-14T07:57:21.584Z,5.20
2022-11-14T08:02:53.484Z,5.25
2022-11-14T08:13:56.179Z,5.13
2022-11-14T08:19:27.963Z,5.11
2022-11-14T08:24:59.853Z,5.16
2022-11-14T08:30:31.698Z,5.16
2022-11-14T08:36:04.185Z,5.20
2022-11-14T08:38:27.403Z,4.94
2022-11-14T08:43:58.906Z,5.07
2022-11-14T08:55:01.647Z,5.30
2022-11-14T09:00:33.488Z,5.51
2022-11-14T09:06:05.435Z,5.74
2022-11-14T09:11:37.360Z,5.90
2022-11-14T09:17:09.363Z,6.00
2022-11-14T09:22:40.972Z,6.18
2022-11-14T09:33:44.542Z,6.60
2022-11-14T09:39:16.474Z,6.81
2022-11-14T09:44:48.303Z,7.01
2022-11-14T09:50:25.428Z,7.18
2022-11-14T09:55:59.746Z,7.38
2022-11-14T10:01:37.633Z,7.51
2022-11-14T10:07:09.183Z,7.61
2022-11-14T10:12:41.234Z,7.77
2022-11-14T10:18:19.322Z,7.86
2022-11-14T10:23:57.609Z,7.97
2022-11-14T10:29:29.802Z,8.16
2022-11-14T10:35:02.202Z,8.40
2022-11-14T10:40:34.068Z,8.45
2022-11-14T10:46:12.063Z,8.51
2022-11-14T10:51:44.526Z,8.60
2022-11-14T10:57:16.480Z,8.70
2022-11-14T11:02:48.193Z,8.83
2022-11-14T11:08:41.988Z,8.89
2022-11-14T11:13:52.646Z,8.94
2022-11-14T11:19:24.720Z,9.00
2022-11-14T11:24:56.601Z,9.10
2022-11-14T11:30:34.640Z,9.13
2022-11-14T11:36:06.487Z,9.13
2022-11-14T11:47:10.790Z,9.23
2022-11-14T11:52:42.667Z,9.22
2022-11-14T11:58:14.678Z,9.23
2022-11-14T12:03:46.907Z,9.25
2022-11-14T12:09:42.588Z,9.27
2022-11-14T12:14:57.045Z,9.28
2022-11-14T12:20:29.003Z,9.32
2022-11-14T12:26:00.930Z,9.40
2022-11-14T12:31:32.948Z,9.51
2022-11-14T12:37:05.017Z,9.65
2022-11-14T12:42:36.894Z,9.71
2022-11-14T12:48:08.775Z,9.79
2022-11-14T12:53:40.525Z,9.94
2022-11-14T12:59:12.466Z,10.13
2022-11-14T13:04:49.947Z,10.30
2022-11-14T13:15:57.237Z,10.61
2022-11-14T13:21:29.373Z,10.81
2022-11-14T13:27:01.612Z,10.96
2022-11-14T13:32:33.584Z,11.04
2022-11-14T13:38:05.643Z,11.26
2022-11-14T13:49:07.412Z,11.52
2022-11-14T13:54:39.448Z,11.64
2022-11-14T14:00:14.238Z,11.75
2022-11-14T14:05:49.791Z,11.83
2022-11-14T14:11:21.966Z,11.82
2022-11-14T14:16:53.645Z,11.71
2022-11-14T14:22:26.013Z,11.70
2022-11-14T14:27:58.008Z,11.70
2022-11-14T14:33:30.047Z,11.65
2022-11-14T14:39:02.052Z,11.55
2022-11-14T14:44:34.115Z,11.46
2022-11-14T14:50:06.395Z,11.34
2022-11-14T14:55:38.513Z,11.18
2022-11-14T15:01:10.625Z,11.15
2022-11-14T15:06:42.379Z,11.14
2022-11-14T15:12:14.121Z,11.04
2022-11-14T15:17:45.499Z,10.92
2022-11-14T15:23:17.814Z,10.79
2022-11-14T15:28:49.964Z,10.65
2022-11-14T15:34:21.717Z,10.56
2022-11-14T15:39:53.943Z,10.45
2022-11-14T15:45:26.098Z,10.31
2022-11-14T15:50:57.764Z,10.20
2022-11-14T15:56:29.592Z,10.10
2022-11-14T16:02:01.452Z,10.06
2022-11-14T16:07:33.719Z,9.99
2022-11-14T16:13:05.535Z,9.91
2022-11-14T16:18:37.590Z,9.83
2022-11-14T16:24:09.780Z,9.75
2022-11-14T16:29:41.893Z,9.70
2022-11-14T16:35:13.900Z,9.62
2022-11-14T16:40:45.935Z,9.53
2022-11-14T16:46:18.035Z,9.45
2022-11-14T16:51:50.290Z,9.43
2022-11-14T16:57:21.770Z,9.41
2022-11-14T17:02:53.992Z,9.39
2022-11-14T17:08:25.730Z,9.34
2022-11-14T17:13:57.834Z,9.27
2022-11-14T17:19:29.641Z,9.20
2022-11-14T17:25:01.589Z,9.15
2022-11-14T17:30:33.528Z,9.12
2022-11-14T17:36:05.476Z,9.08
2022-11-14T17:41:37.211Z,9.03
2022-11-14T17:47:09.105Z,8.97
2022-11-14T17:52:41.055Z,8.92
2022-11-14T17:58:13.346Z,8.87
2022-11-14T18:03:45.476Z,8.80
2022-11-14T18:09:16.952Z,8.73
2022-11-14T18:14:49.209Z,8.65
2022-11-14T18:20:20.962Z,8.57
2022-11-14T18:25:52.831Z,8.47
2022-11-14T18:31:24.981Z,8.37
2022-11-14T18:36:56.764Z,8.28
2022-11-14T18:42:28.650Z,8.20
2022-11-14T18:48:00.724Z,8.12
2022-11-14T18:53:32.890Z,8.05
2022-11-14T18:59:04.830Z,7.96
2022-11-14T19:04:36.863Z,7.88
2022-11-14T19:10:08.982Z,7.79
2022-11-14T19:15:40.977Z,7.69
2022-11-14T19:21:13.149Z,7.60
2022-11-14T19:26:45.805Z,7.55
2022-11-14T19:32:17.855Z,7.52
2022-11-14T19:37:49.931Z,7.44
2022-11-14T19:43:21.778Z,7.36
2022-11-14T19:48:53.870Z,7.29
2022-11-14T19:54:25.688Z,7.23
2022-11-14T19:59:57.829Z,7.17
2022-11-14T20:05:29.925Z,7.10
2022-11-14T20:11:01.861Z,7.04
2022-11-14T20:16:33.604Z,6.99
2022-11-14T20:24:18.770Z,6.53
2022-11-14T20:29:50.212Z,6.70
2022-11-14T20:35:21.872Z,6.75
2022-11-14T20:40:54.094Z,6.76
2022-11-14T20:46:25.813Z,6.75
2022-11-14T20:51:57.452Z,6.74
2022-11-14T20:57:29.390Z,6.72
2022-11-14T21:03:01.612Z,6.74
2022-11-14T21:08:33.697Z,6.74
2022-11-14T21:14:05.001Z,6.71
2022-11-14T21:19:37.009Z,6.70
2022-11-14T21:25:08.681Z,6.69
2022-11-14T21:30:40.356Z,6.70
2022-11-14T21:36:38.147Z,6.72
2022-11-14T21:41:44.243Z,6.74
2022-11-14T21:47:15.900Z,6.76
2022-11-14T21:52:47.670Z,6.77
2022-11-14T21:58:19.266Z,6.77
2022-11-14T22:03:51.474Z,6.75
2022-11-14T22:09:23.401Z,6.70
2022-11-14T22:14:55.091Z,6.66
2022-11-14T22:20:26.745Z,6.56
2022-11-14T22:25:58.752Z,6.41
2022-11-14T22:31:30.558Z,6.29
2022-11-14T22:37:02.481Z,6.24
2022-11-14T22:42:34.076Z,6.23
2022-11-14T22:48:05.868Z,6.16
2022-11-14T22:53:37.608Z,6.04
2022-11-14T22:59:09.517Z,5.96
2022-11-14T23:04:41.425Z,5.90
2022-11-14T23:10:13.084Z,5.84
2022-11-14T23:15:44.795Z,5.74
2022-11-14T23:21:16.718Z,5.64
2022-11-14T23:26:48.556Z,5.52
2022-11-14T23:32:20.439Z,5.41
2022-11-14T23:37:52.158Z,5.30
2022-11-14T23:43:24.015Z,5.22
2022-11-14T23:48:55.729Z,5.14
2022-11-14T23:59:56.988Z,4.96
